createdAt,value
2017-08-21T00:00:23.006Z,60.20
2017-08-21T00:02:49.211Z,60.20
2017-08-21T00:05:15.369Z,60.50
2017-08-21T00:07:42.271Z,60.50
2017-08-21T00:10:08.394Z,60.50
2017-08-21T00:12:35.283Z,60.90
2017-08-21T00:15:02.975Z,60.50
2017-08-21T00:17:29.240Z,60.40
2017-08-21T00:19:55.418Z,60.50
2017-08-21T00:22:21.610Z,60.40
2017-08-21T00:24:48.482Z,61.90
2017-08-21T00:27:14.647Z,61.00
2017-08-21T00:29:40.767Z,60.90
2017-08-21T00:32:07.659Z,61.30
2017-08-21T00:34:33.798Z,61.30
2017-08-21T00:39:37.150Z,61.40
2017-08-21T00:42:03.307Z,60.90
2017-08-21T00:44:30.185Z,60.80
2017-08-21T00:46:56.334Z,60.70
2017-08-21T00:49:23.222Z,60.50
2017-08-21T00:51:49.386Z,60.50
2017-08-21T00:54:15.560Z,60.10
2017-08-21T00:56:41.719Z,60.40
2017-08-21T00:59:07.882Z,60.20
2017-08-21T01:01:34.044Z,60.00
2017-08-21T01:04:00.225Z,59.80
2017-08-21T01:06:26.370Z,60.40
2017-08-21T01:08:52.947Z,60.00
2017-08-21T01:11:19.131Z,60.30
2017-08-21T01:13:51.584Z,59.90
2017-08-21T01:16:17.718Z,59.60
2017-08-21T01:18:43.876Z,59.40
2017-08-21T01:21:10.741Z,59.40
2017-08-21T01:23:36.923Z,59.30
2017-08-21T01:26:03.392Z,59.60
2017-08-21T01:28:30.343Z,59.20
2017-08-21T01:30:56.479Z,59.00
2017-08-21T01:33:22.644Z,59.30
2017-08-21T01:35:48.791Z,59.50
2017-08-21T01:38:15.682Z,58.90
2017-08-21T01:40:41.810Z,58.90
2017-08-21T01:43:07.974Z,59.40
2017-08-21T01:45:34.094Z,59.30
2017-08-21T01:48:00.246Z,59.20
2017-08-21T01:50:26.387Z,59.50
2017-08-21T01:52:52.511Z,59.70
2017-08-21T01:55:18.661Z,59.50
2017-08-21T01:57:45.259Z,58.90
2017-08-21T02:00:11.462Z,59.60
2017-08-21T02:02:37.601Z,59.70
2017-08-21T02:05:03.798Z,59.60
2017-08-21T02:07:29.946Z,58.40
2017-08-21T02:09:56.185Z,58.20
2017-08-21T02:12:22.322Z,57.90
2017-08-21T02:14:48.544Z,58.60
2017-08-21T02:17:14.739Z,57.90
2017-08-21T02:19:40.912Z,58.60
2017-08-21T02:22:07.075Z,58.20
2017-08-21T02:24:33.243Z,57.30
2017-08-21T02:26:59.410Z,56.70
2017-08-21T02:29:25.578Z,56.50
2017-08-21T02:31:52.479Z,56.90
2017-08-21T02:34:18.652Z,57.00
2017-08-21T02:36:44.790Z,57.70
2017-08-21T02:39:12.168Z,58.00
2017-08-21T02:41:38.366Z,57.90
2017-08-21T02:44:04.515Z,58.60
2017-08-21T02:46:32.011Z,58.70
2017-08-21T02:48:59.124Z,58.40
2017-08-21T02:51:25.277Z,58.30
2017-08-21T02:53:51.433Z,57.80
2017-08-21T02:56:17.587Z,57.50
2017-08-21T02:58:43.758Z,57.80
2017-08-21T03:01:09.931Z,58.10
2017-08-21T03:03:36.246Z,58.00
2017-08-21T03:06:02.512Z,57.90
2017-08-21T03:08:28.666Z,57.90
2017-08-21T03:10:55.642Z,59.40
2017-08-21T03:13:21.789Z,58.60
2017-08-21T03:15:47.954Z,58.40
2017-08-21T03:18:14.096Z,58.80
2017-08-21T03:20:40.242Z,58.70
2017-08-21T03:23:06.711Z,58.70
2017-08-21T03:25:32.944Z,58.70
2017-08-21T03:27:59.069Z,58.70
2017-08-21T03:30:25.247Z,59.20
2017-08-21T03:32:51.415Z,59.70
2017-08-21T03:35:18.716Z,60.00
2017-08-21T03:37:44.874Z,60.60
2017-08-21T03:40:11.026Z,60.60
2017-08-21T03:42:37.154Z,61.20
2017-08-21T03:45:03.310Z,61.50
2017-08-21T03:47:29.438Z,61.80
2017-08-21T03:52:34.210Z,62.00
2017-08-21T03:55:00.370Z,62.30
2017-08-21T03:57:26.496Z,61.90
2017-08-21T03:59:52.638Z,61.50
2017-08-21T04:02:18.791Z,61.50
2017-08-21T04:04:45.166Z,60.90
2017-08-21T04:07:11.355Z,61.00
2017-08-21T04:09:37.503Z,61.10
2017-08-21T04:12:03.674Z,60.80
2017-08-21T04:14:29.816Z,60.90
2017-08-21T04:16:56.065Z,61.40
2017-08-21T04:19:22.240Z,61.40
2017-08-21T04:21:48.415Z,61.30
2017-08-21T04:24:14.555Z,60.80
2017-08-21T04:26:40.710Z,61.10
2017-08-21T04:29:06.863Z,61.00
2017-08-21T04:31:33.240Z,61.60
2017-08-21T04:33:59.443Z,61.60
2017-08-21T04:36:25.607Z,61.30
2017-08-21T04:38:51.751Z,61.40
2017-08-21T04:41:17.922Z,61.70
2017-08-21T04:43:44.070Z,61.50
2017-08-21T04:46:11.391Z,61.40
2017-08-21T04:48:38.582Z,61.40
2017-08-21T04:51:04.738Z,61.40
2017-08-21T04:53:33.170Z,61.70
2017-08-21T04:55:59.363Z,61.60
2017-08-21T04:58:25.514Z,61.90
2017-08-21T05:00:51.663Z,61.70
2017-08-21T05:03:18.562Z,61.70
2017-08-21T05:05:44.710Z,61.70
2017-08-21T05:08:11.607Z,61.50
2017-08-21T05:10:37.743Z,61.40
2017-08-21T05:13:04.658Z,61.90
2017-08-21T05:15:30.802Z,61.90
2017-08-21T05:17:56.950Z,61.80
2017-08-21T05:20:23.180Z,61.90
2017-08-21T05:22:49.391Z,61.70
2017-08-21T05:25:15.559Z,61.30
2017-08-21T05:27:41.751Z,61.50
2017-08-21T05:30:08.634Z,62.70
2017-08-21T05:32:34.792Z,61.90
2017-08-21T05:35:01.722Z,61.40
2017-08-21T05:37:29.344Z,61.50
2017-08-21T05:39:55.564Z,61.70
2017-08-21T05:42:23.827Z,61.70
2017-08-21T05:44:50.035Z,61.70
2017-08-21T05:47:16.192Z,61.60
2017-08-21T05:49:42.382Z,61.90
2017-08-21T05:52:09.279Z,62.40
2017-08-21T05:54:35.401Z,62.40
2017-08-21T05:57:01.568Z,61.50
2017-08-21T05:59:27.711Z,60.70
2017-08-21T06:01:53.874Z,60.30
2017-08-21T06:04:20.035Z,59.70
2017-08-21T06:06:47.420Z,59.00
2017-08-21T06:09:13.634Z,59.00
2017-08-21T06:11:39.820Z,59.00
2017-08-21T06:14:05.980Z,58.90
2017-08-21T06:16:32.123Z,58.20
2017-08-21T06:18:58.278Z,57.90
2017-08-21T06:21:24.477Z,57.50
2017-08-21T06:23:51.704Z,56.40
2017-08-21T06:26:17.886Z,56.30
2017-08-21T06:28:44.110Z,56.40
2017-08-21T06:31:10.319Z,56.00
2017-08-21T06:33:36.483Z,55.60
2017-08-21T06:36:02.662Z,55.10
2017-08-21T06:38:28.834Z,54.80
2017-08-21T06:40:54.984Z,54.50
2017-08-21T06:43:21.516Z,53.90
2017-08-21T06:45:48.473Z,54.00
2017-08-21T06:48:14.635Z,53.90
2017-08-21T06:50:40.770Z,54.10
2017-08-21T06:53:06.920Z,54.20
2017-08-21T06:55:33.047Z,54.10
2017-08-21T06:57:59.216Z,53.90
2017-08-21T07:00:26.101Z,53.30
2017-08-21T07:02:52.736Z,53.30
2017-08-21T07:05:19.060Z,53.40
2017-08-21T07:07:46.045Z,54.10
2017-08-21T07:10:12.319Z,53.40
2017-08-21T07:12:39.236Z,52.10
2017-08-21T07:15:05.386Z,52.40
2017-08-21T07:17:31.523Z,52.40
2017-08-21T07:19:57.692Z,52.00
2017-08-21T07:22:24.583Z,51.90
2017-08-21T07:24:50.727Z,51.80
2017-08-21T07:27:16.890Z,51.00
2017-08-21T07:29:43.112Z,51.00
2017-08-21T07:32:09.257Z,50.10
2017-08-21T07:34:35.446Z,50.50
2017-08-21T07:37:01.934Z,48.90
2017-08-21T07:39:28.089Z,48.40
2017-08-21T07:41:54.218Z,48.50
2017-08-21T07:44:21.117Z,48.10
2017-08-21T07:46:47.332Z,48.10
2017-08-21T07:49:13.498Z,48.60
2017-08-21T07:51:39.674Z,47.70
2017-08-21T07:54:05.875Z,47.60
2017-08-21T07:56:32.037Z,47.00
2017-08-21T07:58:58.208Z,46.90
2017-08-21T08:01:24.463Z,46.80
2017-08-21T08:03:50.662Z,47.30
2017-08-21T08:06:16.790Z,46.30
2017-08-21T08:08:43.004Z,45.10
2017-08-21T08:11:09.363Z,45.50
2017-08-21T08:13:35.556Z,45.90
2017-08-21T08:16:01.690Z,45.40
2017-08-21T08:18:27.846Z,45.20
2017-08-21T08:20:54.037Z,45.50
2017-08-21T08:23:20.177Z,45.60
2017-08-21T08:25:46.322Z,45.10
2017-08-21T08:28:12.490Z,45.00
2017-08-21T08:30:38.643Z,45.00
2017-08-21T08:33:04.767Z,45.50
2017-08-21T08:35:31.641Z,44.40
2017-08-21T08:37:57.822Z,44.00
2017-08-21T08:40:24.043Z,44.20
2017-08-21T08:42:50.918Z,44.70
2017-08-21T08:45:17.066Z,44.60
2017-08-21T08:47:43.206Z,44.10
2017-08-21T08:50:10.121Z,43.40
2017-08-21T08:52:37.038Z,44.20
2017-08-21T08:55:03.267Z,44.20
2017-08-21T08:57:30.200Z,44.30
2017-08-21T08:59:57.190Z,43.00
2017-08-21T09:02:23.363Z,43.00
2017-08-21T09:04:49.607Z,43.80
2017-08-21T09:07:15.785Z,42.70
2017-08-21T09:09:42.671Z,43.20
2017-08-21T09:12:09.070Z,43.10
2017-08-21T09:14:35.518Z,42.40
2017-08-21T09:17:02.392Z,42.70
2017-08-21T09:19:28.610Z,43.10
2017-08-21T09:21:54.776Z,42.50
2017-08-21T09:24:20.910Z,41.30
2017-08-21T09:26:47.841Z,40.80
2017-08-21T09:29:14.759Z,40.80
2017-08-21T09:31:40.995Z,40.80
2017-08-21T09:34:07.163Z,40.90
2017-08-21T09:36:33.341Z,40.90
2017-08-21T09:38:59.505Z,41.00
2017-08-21T09:41:26.429Z,41.50
2017-08-21T09:43:52.595Z,41.10
2017-08-21T09:46:18.747Z,40.90
2017-08-21T09:48:44.925Z,39.00
2017-08-21T09:51:11.107Z,39.60
2017-08-21T09:53:37.259Z,39.40
2017-08-21T09:56:03.411Z,39.70
2017-08-21T09:58:30.302Z,38.50
2017-08-21T10:00:56.456Z,37.80
2017-08-21T10:04:04.610Z,38.20
2017-08-21T10:06:30.755Z,39.20
2017-08-21T10:08:56.932Z,38.70
2017-08-21T10:11:23.107Z,38.90
2017-08-21T10:13:49.309Z,37.40
2017-08-21T10:16:15.455Z,35.50
2017-08-21T10:18:41.622Z,35.90
2017-08-21T10:21:07.757Z,36.00
2017-08-21T10:23:33.954Z,36.70
2017-08-21T10:26:00.124Z,35.50
2017-08-21T10:28:26.283Z,35.50
2017-08-21T10:30:52.444Z,35.40
2017-08-21T10:33:18.640Z,34.90
2017-08-21T10:35:44.834Z,34.00
2017-08-21T10:38:11.007Z,33.90
2017-08-21T10:40:37.197Z,33.70
2017-08-21T10:43:03.376Z,33.80
2017-08-21T10:45:29.558Z,34.50
2017-08-21T10:47:55.719Z,32.90
2017-08-21T10:50:21.974Z,33.80
2017-08-21T10:52:48.141Z,33.20
2017-08-21T10:55:14.331Z,33.10
2017-08-21T10:57:40.507Z,32.50
2017-08-21T11:00:06.708Z,32.50
2017-08-21T11:02:32.887Z,32.50
2017-08-21T11:04:59.103Z,32.90
2017-08-21T11:07:25.307Z,33.80
2017-08-21T11:09:51.468Z,34.10
2017-08-21T11:12:17.642Z,33.50
2017-08-21T11:14:43.839Z,32.30
2017-08-21T11:17:09.978Z,34.30
2017-08-21T11:19:36.153Z,32.50
2017-08-21T11:22:02.312Z,32.60
2017-08-21T11:24:28.510Z,32.80
2017-08-21T11:26:54.687Z,33.00
2017-08-21T11:29:20.833Z,33.20
2017-08-21T11:31:47.011Z,31.50
2017-08-21T11:34:13.184Z,30.70
2017-08-21T11:36:39.420Z,31.50
2017-08-21T11:39:05.562Z,29.70
2017-08-21T11:41:31.754Z,29.90
2017-08-21T11:43:57.912Z,33.80
2017-08-21T11:46:24.063Z,32.80
2017-08-21T11:48:50.231Z,32.70
2017-08-21T11:51:16.444Z,34.30
2017-08-21T11:53:42.617Z,32.80
2017-08-21T11:56:08.846Z,33.10
2017-08-21T11:58:35.001Z,31.30
2017-08-21T12:01:01.216Z,31.80
2017-08-21T12:03:27.377Z,31.70
2017-08-21T12:05:53.579Z,30.00
2017-08-21T12:08:19.706Z,30.30
2017-08-21T12:10:45.901Z,29.70
2017-08-21T12:13:12.065Z,29.80
2017-08-21T12:15:38.215Z,29.60
2017-08-21T12:18:04.399Z,29.20
2017-08-21T12:20:30.546Z,29.40
2017-08-21T12:22:56.761Z,28.40
2017-08-21T12:25:23.636Z,29.40
2017-08-21T12:27:50.454Z,29.30
2017-08-21T12:30:16.857Z,30.20
2017-08-21T12:32:43.079Z,32.80
2017-08-21T12:35:09.239Z,32.30
2017-08-21T12:37:35.397Z,33.90
2017-08-21T12:40:01.563Z,31.20
2017-08-21T12:42:27.726Z,30.40
2017-08-21T12:44:53.868Z,30.60
2017-08-21T12:47:20.110Z,30.20
2017-08-21T12:49:46.294Z,30.80
2017-08-21T12:52:12.454Z,34.40
2017-08-21T12:54:38.631Z,29.70
2017-08-21T12:57:04.880Z,30.70
2017-08-21T12:59:31.056Z,30.20
2017-08-21T13:01:57.247Z,30.40
2017-08-21T13:04:23.419Z,32.80
2017-08-21T13:06:53.127Z,31.10
2017-08-21T13:09:19.327Z,30.70
2017-08-21T13:11:45.573Z,31.20
2017-08-21T13:14:11.772Z,30.40
2017-08-21T13:16:37.924Z,31.00
2017-08-21T13:19:04.115Z,31.00
2017-08-21T13:21:30.337Z,30.50
2017-08-21T13:23:56.536Z,30.00
2017-08-21T13:26:22.718Z,30.00
2017-08-21T13:28:48.903Z,32.60
2017-08-21T13:31:15.166Z,29.50
2017-08-21T13:33:41.537Z,28.90
2017-08-21T13:36:07.704Z,28.20
2017-08-21T13:38:33.945Z,29.70
2017-08-21T13:41:00.157Z,29.60
2017-08-21T13:43:26.322Z,27.80
2017-08-21T13:45:52.526Z,27.80
2017-08-21T13:48:18.728Z,27.30
2017-08-21T13:50:44.899Z,27.20
2017-08-21T13:53:11.161Z,27.50
2017-08-21T13:55:41.002Z,26.80
2017-08-21T13:58:07.280Z,27.70
2017-08-21T14:00:33.467Z,27.20
2017-08-21T14:02:59.711Z,28.20
2017-08-21T14:05:25.925Z,27.20
2017-08-21T14:07:52.111Z,27.40
2017-08-21T14:10:18.454Z,27.80
2017-08-21T14:12:44.639Z,27.00
2017-08-21T14:15:10.920Z,27.70
2017-08-21T14:17:37.084Z,27.70
2017-08-21T14:20:03.284Z,28.00
2017-08-21T14:22:29.439Z,28.20
2017-08-21T14:24:55.656Z,28.70
2017-08-21T14:27:21.832Z,29.50
2017-08-21T14:29:48.011Z,31.20
2017-08-21T14:32:14.311Z,29.80
2017-08-21T14:34:40.493Z,29.70
2017-08-21T14:37:06.682Z,28.80
2017-08-21T14:39:32.853Z,28.80
2017-08-21T14:42:00.338Z,28.90
2017-08-21T14:44:26.517Z,29.20
2017-08-21T14:46:52.699Z,29.30
2017-08-21T14:49:18.874Z,29.60
2017-08-21T14:51:45.059Z,29.00
2017-08-21T14:54:11.218Z,28.80
2017-08-21T14:56:37.432Z,29.00
2017-08-21T14:59:03.628Z,28.80
2017-08-21T15:01:29.799Z,29.50
2017-08-21T15:03:55.994Z,28.80
2017-08-21T15:06:22.159Z,28.20
2017-08-21T15:08:48.304Z,29.20
2017-08-21T15:11:14.495Z,30.40
2017-08-21T15:13:40.724Z,33.50
2017-08-21T15:16:06.976Z,31.20
2017-08-21T15:18:33.145Z,29.60
2017-08-21T15:20:59.307Z,29.80
2017-08-21T15:23:25.487Z,30.50
2017-08-21T15:25:51.666Z,31.20
2017-08-21T15:28:17.879Z,29.80
2017-08-21T15:30:44.027Z,29.70
2017-08-21T15:33:10.227Z,31.40
2017-08-21T15:35:36.391Z,30.30
2017-08-21T15:38:02.631Z,30.80
2017-08-21T15:40:28.845Z,30.40
2017-08-21T15:42:55.039Z,30.00
2017-08-21T15:45:21.214Z,30.40
2017-08-21T15:47:47.393Z,30.00
2017-08-21T15:50:13.575Z,30.30
2017-08-21T15:52:39.787Z,30.10
2017-08-21T15:55:05.943Z,30.00
2017-08-21T15:57:32.478Z,30.90
2017-08-21T15:59:58.680Z,31.30
2017-08-21T16:02:24.874Z,32.20
2017-08-21T16:04:51.048Z,29.80
2017-08-21T16:07:17.283Z,30.00
2017-08-21T16:09:44.051Z,29.80
2017-08-21T16:12:10.252Z,29.70
2017-08-21T16:14:36.476Z,29.50
2017-08-21T16:17:02.648Z,28.20
2017-08-21T16:19:28.870Z,28.60
2017-08-21T16:21:55.110Z,29.10
2017-08-21T16:24:21.287Z,29.90
2017-08-21T16:26:47.480Z,29.20
2017-08-21T16:29:13.675Z,29.70
2017-08-21T16:31:39.847Z,29.80
2017-08-21T16:34:06.045Z,29.10
2017-08-21T16:36:32.223Z,30.00
2017-08-21T16:38:58.439Z,29.10
2017-08-21T16:41:24.618Z,32.00
2017-08-21T16:43:50.828Z,30.40
2017-08-21T16:46:16.972Z,30.30
2017-08-21T16:48:43.147Z,31.60
2017-08-21T16:51:09.314Z,31.40
2017-08-21T16:53:35.463Z,32.70
2017-08-21T16:56:01.629Z,33.00
2017-08-21T16:58:27.828Z,33.00
2017-08-21T17:00:54.020Z,34.10
2017-08-21T17:03:20.188Z,33.30
2017-08-21T17:05:46.351Z,34.00
2017-08-21T17:08:12.527Z,33.50
2017-08-21T17:10:38.720Z,34.00
2017-08-21T17:13:04.903Z,34.10
2017-08-21T17:15:31.075Z,34.00
2017-08-21T17:17:57.251Z,34.50
2017-08-21T17:20:23.443Z,36.30
2017-08-21T17:22:49.611Z,36.90
2017-08-21T17:25:16.024Z,36.10
2017-08-21T17:27:42.206Z,37.40
2017-08-21T17:30:08.386Z,37.40
2017-08-21T17:32:34.571Z,36.50
2017-08-21T17:35:00.755Z,36.20
2017-08-21T17:37:27.075Z,36.80
2017-08-21T17:39:53.535Z,36.70
2017-08-21T17:42:19.722Z,37.40
2017-08-21T17:44:45.890Z,37.90
2017-08-21T17:47:12.059Z,38.10
2017-08-21T17:49:38.211Z,39.30
2017-08-21T17:52:04.396Z,39.10
2017-08-21T17:54:30.587Z,39.10
2017-08-21T17:56:56.777Z,39.20
2017-08-21T17:59:23.072Z,39.70
2017-08-21T18:01:49.343Z,40.20
2017-08-21T18:04:15.596Z,40.00
2017-08-21T18:06:41.779Z,41.00
2017-08-21T18:09:07.935Z,41.10
2017-08-21T18:11:34.285Z,41.80
2017-08-21T18:14:00.428Z,41.70
2017-08-21T18:16:26.608Z,41.70
2017-08-21T18:18:52.755Z,41.60
2017-08-21T18:21:18.967Z,41.80
2017-08-21T18:23:45.127Z,42.50
2017-08-21T18:26:11.327Z,42.60
2017-08-21T18:28:37.536Z,42.90
2017-08-21T18:31:03.705Z,42.70
2017-08-21T18:33:29.888Z,43.20
2017-08-21T18:35:56.109Z,43.00
2017-08-21T18:38:22.607Z,43.80
2017-08-21T18:40:48.771Z,43.80
2017-08-21T18:43:14.961Z,44.00
2017-08-21T18:45:41.124Z,44.30
2017-08-21T18:48:07.275Z,44.80
2017-08-21T18:50:33.399Z,45.20
2017-08-21T18:52:59.632Z,45.30
2017-08-21T18:55:25.788Z,45.70
2017-08-21T18:57:51.943Z,45.80
2017-08-21T19:00:18.112Z,46.50
2017-08-21T19:02:44.292Z,46.70
2017-08-21T19:05:10.467Z,47.20
2017-08-21T19:07:38.012Z,47.30
2017-08-21T19:10:04.212Z,48.10
2017-08-21T19:12:30.400Z,48.20
2017-08-21T19:14:56.549Z,48.70
2017-08-21T19:17:22.739Z,48.50
2017-08-21T19:19:48.868Z,48.40
2017-08-21T19:22:15.008Z,48.50
2017-08-21T19:24:43.176Z,48.90
2017-08-21T19:27:09.340Z,49.00
2017-08-21T19:29:35.504Z,49.80
2017-08-21T19:32:01.666Z,49.90
2017-08-21T19:34:27.851Z,48.90
2017-08-21T19:36:54.031Z,49.00
2017-08-21T19:39:20.227Z,48.80
2017-08-21T19:41:46.381Z,48.80
2017-08-21T19:44:12.599Z,49.60
2017-08-21T19:46:38.738Z,49.60
2017-08-21T19:49:04.932Z,49.50
2017-08-21T19:51:31.087Z,50.10
2017-08-21T19:53:57.303Z,50.20
2017-08-21T19:56:23.460Z,50.00
2017-08-21T19:58:49.644Z,50.00
2017-08-21T20:01:18.152Z,50.60
2017-08-21T20:03:51.607Z,50.20
2017-08-21T20:06:17.899Z,50.30
2017-08-21T20:08:44.128Z,50.50
2017-08-21T20:11:10.283Z,50.70
2017-08-21T20:13:36.497Z,50.80
2017-08-21T20:16:02.688Z,50.70
2017-08-21T20:18:28.918Z,50.90
2017-08-21T20:20:55.071Z,50.90
2017-08-21T20:23:21.243Z,51.20
2017-08-21T20:25:47.408Z,51.40
2017-08-21T20:28:13.565Z,51.70
2017-08-21T20:30:39.752Z,51.70
2017-08-21T20:33:05.936Z,51.90
2017-08-21T20:35:32.092Z,52.30
2017-08-21T20:37:58.263Z,52.80
2017-08-21T20:40:24.430Z,52.80
2017-08-21T20:42:50.799Z,53.80
2017-08-21T20:45:17.069Z,52.90
2017-08-21T20:47:43.243Z,53.00
2017-08-21T20:50:09.456Z,53.20
2017-08-21T20:52:35.635Z,53.30
2017-08-21T20:55:01.812Z,53.40
2017-08-21T20:57:28.061Z,53.50
2017-08-21T20:59:54.239Z,54.00
2017-08-21T21:02:20.396Z,53.90
2017-08-21T21:04:46.648Z,54.10
2017-08-21T21:07:12.831Z,54.30
2017-08-21T21:09:39.004Z,54.50
2017-08-21T21:12:05.168Z,54.80
2017-08-21T21:14:31.359Z,55.10
2017-08-21T21:16:57.578Z,55.50
2017-08-21T21:19:23.763Z,55.50
2017-08-21T21:21:49.944Z,55.50
2017-08-21T21:24:16.115Z,55.70
2017-08-21T21:26:42.296Z,55.40
2017-08-21T21:29:08.456Z,55.40
2017-08-21T21:31:34.621Z,55.50
2017-08-21T21:34:00.804Z,56.00
2017-08-21T21:36:26.960Z,56.10
2017-08-21T21:38:53.119Z,56.20
2017-08-21T21:41:19.319Z,56.40
2017-08-21T21:43:45.480Z,56.70
2017-08-21T21:46:15.316Z,56.60
2017-08-21T21:48:41.516Z,56.60
2017-08-21T21:51:07.679Z,56.70
2017-08-21T21:53:33.851Z,56.80
2017-08-21T21:56:00.044Z,57.00
2017-08-21T21:58:26.243Z,56.40
2017-08-21T22:00:52.451Z,56.60
2017-08-21T22:03:18.613Z,56.90
2017-08-21T22:05:44.793Z,57.00
2017-08-21T22:08:10.951Z,57.40
2017-08-21T22:10:37.114Z,57.40
2017-08-21T22:13:03.297Z,57.30
2017-08-21T22:15:29.487Z,57.40
2017-08-21T22:17:55.672Z,57.30
2017-08-21T22:20:21.870Z,57.20
2017-08-21T22:22:48.027Z,57.30
2017-08-21T22:25:14.221Z,57.40
2017-08-21T22:27:40.383Z,57.30
2017-08-21T22:30:06.598Z,57.20
2017-08-21T22:32:32.767Z,58.00
2017-08-21T22:34:58.959Z,57.30
2017-08-21T22:37:25.143Z,57.30
2017-08-21T22:39:51.303Z,57.30
2017-08-21T22:42:17.489Z,57.40
2017-08-21T22:44:43.655Z,57.10
2017-08-21T22:47:09.806Z,57.40
2017-08-21T22:49:35.962Z,57.40
2017-08-21T22:52:02.108Z,57.30
2017-08-21T22:54:28.319Z,57.40
2017-08-21T22:56:54.479Z,57.40
2017-08-21T22:59:20.647Z,57.40
2017-08-21T23:02:05.241Z,57.40
2017-08-21T23:04:31.440Z,57.40
2017-08-21T23:06:57.570Z,57.00
2017-08-21T23:09:23.702Z,56.80
2017-08-21T23:11:49.829Z,56.80
2017-08-21T23:14:16.010Z,57.00
2017-08-21T23:16:42.165Z,56.80
2017-08-21T23:19:08.299Z,57.20
2017-08-21T23:21:34.459Z,56.80
2017-08-21T23:24:00.587Z,57.10
2017-08-21T23:26:26.765Z,56.60
2017-08-21T23:28:52.915Z,56.90
2017-08-21T23:31:19.100Z,56.70
2017-08-21T23:33:45.261Z,56.60
2017-08-21T23:36:11.444Z,56.30
2017-08-21T23:38:37.619Z,56.40
2017-08-21T23:41:03.795Z,56.40
2017-08-21T23:43:29.960Z,56.50
2017-08-21T23:45:56.143Z,56.30
2017-08-21T23:48:22.291Z,56.20
2017-08-21T23:50:48.451Z,56.60
2017-08-21T23:53:14.612Z,57.10
2017-08-21T23:55:40.801Z,56.60
2017-08-21T23:58:06.970Z,57.10
